sensor_id;sensor_type;location;lat;lon;timestamp;P1;durP1;ratioP1;P2;durP2;ratioP2
11533;SDS011;5823;50.588;8.462;2022-11-15T00:01:49;0.55;;;0.45;;
11533;SDS011;5823;50.588;8.462;2022-11-15T00:04:15;0.45;;;0.45;;
11533;SDS011;5823;50.588;8.462;2022-11-15T00:06:43;0.80;;;0.80;;
11533;SDS011;5823;50.588;8.462;2022-11-15T00:09:09;0.60;;;0.60;;
11533;SDS011;5823;50.588;8.462;2022-11-15T00:11:35;0.57;;;0.57;;
11533;SDS011;5823;50.588;8.462;2022-11-15T00:14:02;0.28;;;0.28;;
11533;SDS011;5823;50.588;8.462;2022-11-15T00:16:28;0.45;;;0.45;;
11533;SDS011;5823;50.588;8.462;2022-11-15T00:18:54;0.45;;;0.45;;
11533;SDS011;5823;50.588;8.462;2022-11-15T00:21:22;0.40;;;0.40;;
11533;SDS011;5823;50.588;8.462;2022-11-15T00:23:49;0.30;;;0.30;;
11533;SDS011;5823;50.588;8.462;2022-11-15T00:26:16;0.38;;;0.38;;
11533;SDS011;5823;50.588;8.462;2022-11-15T00:28:43;0.25;;;0.25;;
11533;SDS011;5823;50.588;8.462;2022-11-15T00:31:10;0.57;;;0.57;;
11533;SDS011;5823;50.588;8.462;2022-11-15T00:33:37;0.30;;;0.30;;
11533;SDS011;5823;50.588;8.462;2022-11-15T00:36:04;0.22;;;0.22;;
11533;SDS011;5823;50.588;8.462;2022-11-15T00:38:31;0.43;;;0.43;;
11533;SDS011;5823;50.588;8.462;2022-11-15T00:41:00;0.60;;;0.60;;
11533;SDS011;5823;50.588;8.462;2022-11-15T00:43:26;0.38;;;0.38;;
11533;SDS011;5823;50.588;8.462;2022-11-15T00:45:53;0.22;;;0.22;;
11533;SDS011;5823;50.588;8.462;2022-11-15T00:48:19;0.38;;;0.38;;
11533;SDS011;5823;50.588;8.462;2022-11-15T00:50:45;0.40;;;0.32;;
11533;SDS011;5823;50.588;8.462;2022-11-15T00:53:12;0.47;;;0.47;;
11533;SDS011;5823;50.588;8.462;2022-11-15T00:55:38;0.20;;;0.20;;
11533;SDS011;5823;50.588;8.462;2022-11-15T00:58:06;0.30;;;0.30;;
11533;SDS011;5823;50.588;8.462;2022-11-15T01:00:32;0.32;;;0.32;;
11533;SDS011;5823;50.588;8.462;2022-11-15T01:02:59;0.30;;;0.30;;
11533;SDS011;5823;50.588;8.462;2022-11-15T01:05:25;0.50;;;0.50;;
11533;SDS011;5823;50.588;8.462;2022-11-15T01:07:52;0.45;;;0.45;;
11533;SDS011;5823;50.588;8.462;2022-11-15T01:10:18;0.30;;;0.30;;
11533;SDS011;5823;50.588;8.462;2022-11-15T01:12:45;0.43;;;0.40;;
11533;SDS011;5823;50.588;8.462;2022-11-15T01:15:13;0.22;;;0.20;;
11533;SDS011;5823;50.588;8.462;2022-11-15T01:17:39;0.30;;;0.30;;
11533;SDS011;5823;50.588;8.462;2022-11-15T01:20:06;0.40;;;0.40;;
11533;SDS011;5823;50.588;8.462;2022-11-15T01:22:32;0.30;;;0.30;;
11533;SDS011;5823;50.588;8.462;2022-11-15T01:24:58;0.40;;;0.40;;
11533;SDS011;5823;50.588;8.462;2022-11-15T01:27:25;0.35;;;0.35;;
11533;SDS011;5823;50.588;8.462;2022-11-15T01:29:51;0.35;;;0.20;;
11533;SDS011;5823;50.588;8.462;2022-11-15T01:32:19;0.20;;;0.20;;
11533;SDS011;5823;50.588;8.462;2022-11-15T01:34:45;0.30;;;0.30;;
11533;SDS011;5823;50.588;8.462;2022-11-15T01:37:11;0.30;;;0.25;;
11533;SDS011;5823;50.588;8.462;2022-11-15T01:39:38;0.35;;;0.35;;
11533;SDS011;5823;50.588;8.462;2022-11-15T01:42:04;0.43;;;0.43;;
11533;SDS011;5823;50.588;8.462;2022-11-15T01:44:34;0.30;;;0.30;;
11533;SDS011;5823;50.588;8.462;2022-11-15T01:47:02;0.35;;;0.35;;
11533;SDS011;5823;50.588;8.462;2022-11-15T01:49:32;0.25;;;0.25;;
11533;SDS011;5823;50.588;8.462;2022-11-15T01:51:59;0.35;;;0.35;;
11533;SDS011;5823;50.588;8.462;2022-11-15T01:54:26;0.32;;;0.32;;
11533;SDS011;5823;50.588;8.462;2022-11-15T01:56:54;0.30;;;0.30;;
11533;SDS011;5823;50.588;8.462;2022-11-15T01:59:22;0.25;;;0.25;;
11533;SDS011;5823;50.588;8.462;2022-11-15T02:01:49;0.30;;;0.30;;
11533;SDS011;5823;50.588;8.462;2022-11-15T02:04:16;0.32;;;0.32;;
11533;SDS011;5823;50.588;8.462;2022-11-15T02:06:44;0.30;;;0.30;;
11533;SDS011;5823;50.588;8.462;2022-11-15T02:09:11;0.20;;;0.20;;
11533;SDS011;5823;50.588;8.462;2022-11-15T02:11:37;0.30;;;0.30;;
11533;SDS011;5823;50.588;8.462;2022-11-15T02:14:04;0.40;;;0.40;;
11533;SDS011;5823;50.588;8.462;2022-11-15T02:16:32;0.30;;;0.30;;
11533;SDS011;5823;50.588;8.462;2022-11-15T02:19:02;0.38;;;0.38;;
11533;SDS011;5823;50.588;8.462;2022-11-15T02:21:35;0.30;;;0.28;;
11533;SDS011;5823;50.588;8.462;2022-11-15T02:26:57;0.30;;;0.30;;
11533;SDS011;5823;50.588;8.462;2022-11-15T02:29:33;0.40;;;0.40;;
11533;SDS011;5823;50.588;8.462;2022-11-15T02:32:05;0.20;;;0.20;;
11533;SDS011;5823;50.588;8.462;2022-11-15T02:34:35;0.30;;;0.25;;
11533;SDS011;5823;50.588;8.462;2022-11-15T02:37:03;0.55;;;0.47;;
11533;SDS011;5823;50.588;8.462;2022-11-15T02:39:35;0.40;;;0.40;;
11533;SDS011;5823;50.588;8.462;2022-11-15T02:42:06;0.20;;;0.20;;
11533;SDS011;5823;50.588;8.462;2022-11-15T02:44:53;0.20;;;0.20;;
11533;SDS011;5823;50.588;8.462;2022-11-15T02:47:22;0.28;;;0.28;;
11533;SDS011;5823;50.588;8.462;2022-11-15T02:49:50;0.35;;;0.35;;
11533;SDS011;5823;50.588;8.462;2022-11-15T02:52:19;0.10;;;0.10;;
11533;SDS011;5823;50.588;8.462;2022-11-15T02:54:52;0.30;;;0.30;;
11533;SDS011;5823;50.588;8.462;2022-11-15T02:57:19;0.47;;;0.47;;
11533;SDS011;5823;50.588;8.462;2022-11-15T03:02:54;0.20;;;0.20;;
11533;SDS011;5823;50.588;8.462;2022-11-15T03:05:24;0.22;;;0.22;;
11533;SDS011;5823;50.588;8.462;2022-11-15T03:07:53;0.13;;;0.13;;
11533;SDS011;5823;50.588;8.462;2022-11-15T03:10:22;0.30;;;0.30;;
11533;SDS011;5823;50.588;8.462;2022-11-15T03:12:51;0.52;;;0.38;;
11533;SDS011;5823;50.588;8.462;2022-11-15T03:15:20;0.30;;;0.30;;
11533;SDS011;5823;50.588;8.462;2022-11-15T03:17:47;0.20;;;0.20;;
11533;SDS011;5823;50.588;8.462;2022-11-15T03:20:17;0.30;;;0.30;;
11533;SDS011;5823;50.588;8.462;2022-11-15T03:22:44;0.52;;;0.52;;
11533;SDS011;5823;50.588;8.462;2022-11-15T03:25:13;0.20;;;0.20;;
11533;SDS011;5823;50.588;8.462;2022-11-15T03:27:44;0.30;;;0.30;;
11533;SDS011;5823;50.588;8.462;2022-11-15T03:30:12;0.20;;;0.20;;
11533;SDS011;5823;50.588;8.462;2022-11-15T03:32:40;0.40;;;0.40;;
11533;SDS011;5823;50.588;8.462;2022-11-15T03:35:08;0.40;;;0.40;;
11533;SDS011;5823;50.588;8.462;2022-11-15T03:37:37;0.40;;;0.40;;
11533;SDS011;5823;50.588;8.462;2022-11-15T03:40:05;0.20;;;0.20;;
11533;SDS011;5823;50.588;8.462;2022-11-15T03:42:33;0.13;;;0.13;;
11533;SDS011;5823;50.588;8.462;2022-11-15T03:45:02;0.55;;;0.30;;
11533;SDS011;5823;50.588;8.462;2022-11-15T03:47:31;0.38;;;0.38;;
11533;SDS011;5823;50.588;8.462;2022-11-15T03:49:59;0.30;;;0.30;;
11533;SDS011;5823;50.588;8.462;2022-11-15T03:52:30;0.30;;;0.30;;
11533;SDS011;5823;50.588;8.462;2022-11-15T03:54:58;0.30;;;0.30;;
11533;SDS011;5823;50.588;8.462;2022-11-15T03:57:25;0.28;;;0.25;;
11533;SDS011;5823;50.588;8.462;2022-11-15T03:59:51;0.20;;;0.20;;
11533;SDS011;5823;50.588;8.462;2022-11-15T04:02:18;0.25;;;0.25;;
11533;SDS011;5823;50.588;8.462;2022-11-15T04:04:45;0.30;;;0.30;;
11533;SDS011;5823;50.588;8.462;2022-11-15T04:07:11;0.50;;;0.40;;
11533;SDS011;5823;50.588;8.462;2022-11-15T04:09:37;0.10;;;0.10;;
11533;SDS011;5823;50.588;8.462;2022-11-15T04:12:26;0.30;;;0.30;;
11533;SDS011;5823;50.588;8.462;2022-11-15T04:14:56;0.20;;;0.20;;
11533;SDS011;5823;50.588;8.462;2022-11-15T04:17:33;0.35;;;0.35;;
11533;SDS011;5823;50.588;8.462;2022-11-15T04:19:59;0.10;;;0.10;;
11533;SDS011;5823;50.588;8.462;2022-11-15T04:22:43;0.40;;;0.40;;
11533;SDS011;5823;50.588;8.462;2022-11-15T04:25:27;0.30;;;0.30;;
11533;SDS011;5823;50.588;8.462;2022-11-15T04:27:55;0.28;;;0.28;;
11533;SDS011;5823;50.588;8.462;2022-11-15T04:30:21;0.20;;;0.20;;
11533;SDS011;5823;50.588;8.462;2022-11-15T04:32:47;0.20;;;0.20;;
11533;SDS011;5823;50.588;8.462;2022-11-15T04:35:14;0.20;;;0.20;;
11533;SDS011;5823;50.588;8.462;2022-11-15T04:37:40;0.22;;;0.22;;
11533;SDS011;5823;50.588;8.462;2022-11-15T04:40:07;0.47;;;0.47;;
11533;SDS011;5823;50.588;8.462;2022-11-15T04:42:33;0.35;;;0.35;;
11533;SDS011;5823;50.588;8.462;2022-11-15T04:45:01;0.25;;;0.25;;
11533;SDS011;5823;50.588;8.462;2022-11-15T04:47:27;0.30;;;0.30;;
11533;SDS011;5823;50.588;8.462;2022-11-15T04:49:54;0.25;;;0.25;;
11533;SDS011;5823;50.588;8.462;2022-11-15T04:52:20;0.30;;;0.30;;
11533;SDS011;5823;50.588;8.462;2022-11-15T04:54:46;0.20;;;0.20;;
11533;SDS011;5823;50.588;8.462;2022-11-15T04:57:13;0.22;;;0.22;;
11533;SDS011;5823;50.588;8.462;2022-11-15T04:59:39;0.20;;;0.20;;
11533;SDS011;5823;50.588;8.462;2022-11-15T05:02:07;0.30;;;0.30;;
11533;SDS011;5823;50.588;8.462;2022-11-15T05:04:33;0.20;;;0.20;;
11533;SDS011;5823;50.588;8.462;2022-11-15T05:06:59;0.52;;;0.40;;
11533;SDS011;5823;50.588;8.462;2022-11-15T05:09:25;0.30;;;0.30;;
11533;SDS011;5823;50.588;8.462;2022-11-15T05:11:51;0.30;;;0.25;;
11533;SDS011;5823;50.588;8.462;2022-11-15T05:14:17;0.30;;;0.30;;
11533;SDS011;5823;50.588;8.462;2022-11-15T05:16:44;0.20;;;0.20;;
11533;SDS011;5823;50.588;8.462;2022-11-15T05:19:12;0.40;;;0.40;;
11533;SDS011;5823;50.588;8.462;2022-11-15T05:21:38;0.20;;;0.20;;
11533;SDS011;5823;50.588;8.462;2022-11-15T05:24:05;0.17;;;0.17;;
11533;SDS011;5823;50.588;8.462;2022-11-15T05:26:31;0.20;;;0.20;;
11533;SDS011;5823;50.588;8.462;2022-11-15T05:28:58;0.30;;;0.30;;
11533;SDS011;5823;50.588;8.462;2022-11-15T05:31:25;0.30;;;0.30;;
11533;SDS011;5823;50.588;8.462;2022-11-15T05:33:51;0.20;;;0.20;;
11533;SDS011;5823;50.588;8.462;2022-11-15T05:36:21;0.25;;;0.25;;
11533;SDS011;5823;50.588;8.462;2022-11-15T05:38:50;0.30;;;0.30;;
11533;SDS011;5823;50.588;8.462;2022-11-15T05:41:17;0.30;;;0.30;;
11533;SDS011;5823;50.588;8.462;2022-11-15T05:43:45;0.30;;;0.30;;
11533;SDS011;5823;50.588;8.462;2022-11-15T05:46:12;0.20;;;0.20;;
11533;SDS011;5823;50.588;8.462;2022-11-15T05:48:39;0.17;;;0.17;;
11533;SDS011;5823;50.588;8.462;2022-11-15T05:51:06;0.40;;;0.40;;
11533;SDS011;5823;50.588;8.462;2022-11-15T05:53:34;0.30;;;0.25;;
11533;SDS011;5823;50.588;8.462;2022-11-15T05:56:02;0.45;;;0.45;;
11533;SDS011;5823;50.588;8.462;2022-11-15T05:58:30;0.43;;;0.43;;
11533;SDS011;5823;50.588;8.462;2022-11-15T06:00:56;0.15;;;0.15;;
11533;SDS011;5823;50.588;8.462;2022-11-15T06:03:22;0.30;;;0.30;;
11533;SDS011;5823;50.588;8.462;2022-11-15T06:05:49;0.32;;;0.20;;
11533;SDS011;5823;50.588;8.462;2022-11-15T06:08:15;0.28;;;0.28;;
11533;SDS011;5823;50.588;8.462;2022-11-15T06:10:42;0.40;;;0.40;;
11533;SDS011;5823;50.588;8.462;2022-11-15T06:13:09;0.25;;;0.25;;
11533;SDS011;5823;50.588;8.462;2022-11-15T06:15:35;0.30;;;0.30;;
11533;SDS011;5823;50.588;8.462;2022-11-15T06:18:01;0.10;;;0.10;;
11533;SDS011;5823;50.588;8.462;2022-11-15T06:20:28;0.20;;;0.20;;
11533;SDS011;5823;50.588;8.462;2022-11-15T06:22:58;0.20;;;0.20;;
11533;SDS011;5823;50.588;8.462;2022-11-15T06:25:25;0.20;;;0.20;;
11533;SDS011;5823;50.588;8.462;2022-11-15T06:27:53;0.40;;;0.40;;
11533;SDS011;5823;50.588;8.462;2022-11-15T06:30:19;0.20;;;0.20;;
11533;SDS011;5823;50.588;8.462;2022-11-15T06:32:46;0.50;;;0.40;;
11533;SDS011;5823;50.588;8.462;2022-11-15T06:35:12;0.10;;;0.10;;
11533;SDS011;5823;50.588;8.462;2022-11-15T06:37:38;0.20;;;0.20;;
11533;SDS011;5823;50.588;8.462;2022-11-15T06:40:05;0.20;;;0.20;;
11533;SDS011;5823;50.588;8.462;2022-11-15T06:42:31;0.20;;;0.20;;
11533;SDS011;5823;50.588;8.462;2022-11-15T06:44:59;0.20;;;0.20;;
11533;SDS011;5823;50.588;8.462;2022-11-15T06:47:25;0.17;;;0.17;;
11533;SDS011;5823;50.588;8.462;2022-11-15T06:49:51;0.22;;;0.22;;
11533;SDS011;5823;50.588;8.462;2022-11-15T06:52:18;0.25;;;0.25;;
11533;SDS011;5823;50.588;8.462;2022-11-15T06:54:44;0.43;;;0.40;;
11533;SDS011;5823;50.588;8.462;2022-11-15T06:57:10;0.45;;;0.45;;
11533;SDS011;5823;50.588;8.462;2022-11-15T06:59:37;0.15;;;0.15;;
11533;SDS011;5823;50.588;8.462;2022-11-15T07:02:05;0.38;;;0.38;;
11533;SDS011;5823;50.588;8.462;2022-11-15T07:04:31;0.25;;;0.25;;
11533;SDS011;5823;50.588;8.462;2022-11-15T07:06:57;0.52;;;0.52;;
11533;SDS011;5823;50.588;8.462;2022-11-15T07:09:24;0.30;;;0.30;;
11533;SDS011;5823;50.588;8.462;2022-11-15T07:11:51;0.32;;;0.32;;
11533;SDS011;5823;50.588;8.462;2022-11-15T07:14:17;0.30;;;0.30;;
11533;SDS011;5823;50.588;8.462;2022-11-15T07:16:43;0.57;;;0.52;;
11533;SDS011;5823;50.588;8.462;2022-11-15T07:19:11;0.38;;;0.38;;
11533;SDS011;5823;50.588;8.462;2022-11-15T07:21:37;0.40;;;0.40;;
11533;SDS011;5823;50.588;8.462;2022-11-15T07:24:03;0.40;;;0.40;;
11533;SDS011;5823;50.588;8.462;2022-11-15T07:26:30;0.70;;;0.68;;
11533;SDS011;5823;50.588;8.462;2022-11-15T07:28:56;0.40;;;0.40;;
11533;SDS011;5823;50.588;8.462;2022-11-15T07:31:22;0.30;;;0.30;;
11533;SDS011;5823;50.588;8.462;2022-11-15T07:33:49;0.32;;;0.32;;
11533;SDS011;5823;50.588;8.462;2022-11-15T07:36:16;0.28;;;0.28;;
11533;SDS011;5823;50.588;8.462;2022-11-15T07:38:43;0.32;;;0.32;;
11533;SDS011;5823;50.588;8.462;2022-11-15T07:41:09;0.22;;;0.22;;
11533;SDS011;5823;50.588;8.462;2022-11-15T07:43:35;0.30;;;0.30;;
11533;SDS011;5823;50.588;8.462;2022-11-15T07:46:04;0.38;;;0.38;;
11533;SDS011;5823;50.588;8.462;2022-11-15T07:48:30;0.60;;;0.60;;
11533;SDS011;5823;50.588;8.462;2022-11-15T07:50:56;0.50;;;0.50;;
11533;SDS011;5823;50.588;8.462;2022-11-15T07:53:24;0.40;;;0.40;;
11533;SDS011;5823;50.588;8.462;2022-11-15T07:55:50;0.40;;;0.40;;
11533;SDS011;5823;50.588;8.462;2022-11-15T07:58:18;0.32;;;0.32;;
11533;SDS011;5823;50.588;8.462;2022-11-15T08:00:44;0.22;;;0.22;;
11533;SDS011;5823;50.588;8.462;2022-11-15T08:03:11;0.30;;;0.30;;
11533;SDS011;5823;50.588;8.462;2022-11-15T08:05:38;0.32;;;0.32;;
11533;SDS011;5823;50.588;8.462;2022-11-15T08:08:05;0.32;;;0.32;;
11533;SDS011;5823;50.588;8.462;2022-11-15T08:10:32;0.52;;;0.52;;
11533;SDS011;5823;50.588;8.462;2022-11-15T08:12:59;0.55;;;0.40;;
11533;SDS011;5823;50.588;8.462;2022-11-15T08:15:25;0.40;;;0.40;;
11533;SDS011;5823;50.588;8.462;2022-11-15T08:17:55;0.57;;;0.57;;
11533;SDS011;5823;50.588;8.462;2022-11-15T08:20:21;0.40;;;0.40;;
11533;SDS011;5823;50.588;8.462;2022-11-15T08:22:48;0.50;;;0.50;;
11533;SDS011;5823;50.588;8.462;2022-11-15T08:25:14;0.20;;;0.20;;
11533;SDS011;5823;50.588;8.462;2022-11-15T08:27:42;0.20;;;0.20;;
11533;SDS011;5823;50.588;8.462;2022-11-15T08:36:26;0.25;;;0.25;;
11533;SDS011;5823;50.588;8.462;2022-11-15T08:38:52;0.32;;;0.32;;
11533;SDS011;5823;50.588;8.462;2022-11-15T08:41:20;0.55;;;0.55;;
11533;SDS011;5823;50.588;8.462;2022-11-15T08:43:50;0.30;;;0.30;;
11533;SDS011;5823;50.588;8.462;2022-11-15T08:46:17;0.30;;;0.30;;
11533;SDS011;5823;50.588;8.462;2022-11-15T08:48:43;0.32;;;0.32;;
11533;SDS011;5823;50.588;8.462;2022-11-15T08:51:09;0.20;;;0.20;;
11533;SDS011;5823;50.588;8.462;2022-11-15T08:53:35;0.85;;;0.52;;
11533;SDS011;5823;50.588;8.462;2022-11-15T08:56:02;0.45;;;0.45;;
11533;SDS011;5823;50.588;8.462;2022-11-15T08:58:29;0.43;;;0.43;;
11533;SDS011;5823;50.588;8.462;2022-11-15T09:00:56;0.95;;;0.40;;
11533;SDS011;5823;50.588;8.462;2022-11-15T09:03:22;0.50;;;0.50;;
11533;SDS011;5823;50.588;8.462;2022-11-15T09:05:51;0.30;;;0.30;;
11533;SDS011;5823;50.588;8.462;2022-11-15T09:08:19;0.40;;;0.40;;
11533;SDS011;5823;50.588;8.462;2022-11-15T09:10:45;0.50;;;0.40;;
11533;SDS011;5823;50.588;8.462;2022-11-15T09:13:12;0.17;;;0.17;;
11533;SDS011;5823;50.588;8.462;2022-11-15T09:15:38;0.22;;;0.22;;
11533;SDS011;5823;50.588;8.462;2022-11-15T09:18:06;0.20;;;0.20;;
11533;SDS011;5823;50.588;8.462;2022-11-15T09:20:32;0.32;;;0.32;;
11533;SDS011;5823;50.588;8.462;2022-11-15T09:22:59;0.40;;;0.40;;
11533;SDS011;5823;50.588;8.462;2022-11-15T09:25:26;0.30;;;0.30;;
11533;SDS011;5823;50.588;8.462;2022-11-15T09:27:52;0.50;;;0.38;;
11533;SDS011;5823;50.588;8.462;2022-11-15T09:30:18;0.63;;;0.63;;
11533;SDS011;5823;50.588;8.462;2022-11-15T09:32:44;0.70;;;0.70;;
11533;SDS011;5823;50.588;8.462;2022-11-15T09:35:12;0.70;;;0.70;;
11533;SDS011;5823;50.588;8.462;2022-11-15T09:37:39;0.77;;;0.68;;
11533;SDS011;5823;50.588;8.462;2022-11-15T09:40:06;0.50;;;0.47;;
11533;SDS011;5823;50.588;8.462;2022-11-15T09:42:43;0.40;;;0.40;;
11533;SDS011;5823;50.588;8.462;2022-11-15T09:45:14;0.47;;;0.47;;
11533;SDS011;5823;50.588;8.462;2022-11-15T09:47:51;0.60;;;0.60;;
11533;SDS011;5823;50.588;8.462;2022-11-15T09:50:28;0.70;;;0.70;;
11533;SDS011;5823;50.588;8.462;2022-11-15T09:52:54;0.60;;;0.60;;
11533;SDS011;5823;50.588;8.462;2022-11-15T09:55:21;1.00;;;0.90;;
11533;SDS011;5823;50.588;8.462;2022-11-15T09:57:55;0.70;;;0.70;;
11533;SDS011;5823;50.588;8.462;2022-11-15T10:00:27;0.57;;;0.57;;
11533;SDS011;5823;50.588;8.462;2022-11-15T10:03:03;0.40;;;0.40;;
11533;SDS011;5823;50.588;8.462;2022-11-15T10:05:32;0.55;;;0.55;;
11533;SDS011;5823;50.588;8.462;2022-11-15T10:08:03;0.65;;;0.50;;
11533;SDS011;5823;50.588;8.462;2022-11-15T10:10:32;0.70;;;0.70;;
11533;SDS011;5823;50.588;8.462;2022-11-15T10:13:01;0.43;;;0.40;;
11533;SDS011;5823;50.588;8.462;2022-11-15T10:15:28;0.60;;;0.60;;
11533;SDS011;5823;50.588;8.462;2022-11-15T10:18:05;0.52;;;0.52;;
11533;SDS011;5823;50.588;8.462;2022-11-15T10:20:36;0.40;;;0.40;;
11533;SDS011;5823;50.588;8.462;2022-11-15T10:23:05;0.75;;;0.60;;
11533;SDS011;5823;50.588;8.462;2022-11-15T10:25:32;0.75;;;0.75;;
11533;SDS011;5823;50.588;8.462;2022-11-15T10:27:59;0.60;;;0.60;;
11533;SDS011;5823;50.588;8.462;2022-11-15T10:30:31;0.52;;;0.52;;
11533;SDS011;5823;50.588;8.462;2022-11-15T10:32:58;0.47;;;0.47;;
11533;SDS011;5823;50.588;8.462;2022-11-15T10:35:28;0.90;;;0.90;;
11533;SDS011;5823;50.588;8.462;2022-11-15T10:38:05;0.90;;;0.65;;
11533;SDS011;5823;50.588;8.462;2022-11-15T10:40:32;0.73;;;0.73;;
11533;SDS011;5823;50.588;8.462;2022-11-15T10:43:04;0.88;;;0.88;;
11533;SDS011;5823;50.588;8.462;2022-11-15T10:45:32;0.80;;;0.80;;
11533;SDS011;5823;50.588;8.462;2022-11-15T10:48:18;0.60;;;0.60;;
11533;SDS011;5823;50.588;8.462;2022-11-15T10:50:45;0.50;;;0.50;;
11533;SDS011;5823;50.588;8.462;2022-11-15T10:53:15;0.80;;;0.80;;
11533;SDS011;5823;50.588;8.462;2022-11-15T10:55:45;0.60;;;0.57;;
11533;SDS011;5823;50.588;8.462;2022-11-15T10:58:19;0.90;;;0.57;;
11533;SDS011;5823;50.588;8.462;2022-11-15T11:00:46;0.57;;;0.57;;
11533;SDS011;5823;50.588;8.462;2022-11-15T11:03:22;0.82;;;0.82;;
11533;SDS011;5823;50.588;8.462;2022-11-15T11:06:02;0.70;;;0.60;;
11533;SDS011;5823;50.588;8.462;2022-11-15T11:08:30;0.88;;;0.88;;
11533;SDS011;5823;50.588;8.462;2022-11-15T11:10:58;0.60;;;0.60;;
11533;SDS011;5823;50.588;8.462;2022-11-15T11:13:26;0.80;;;0.80;;
11533;SDS011;5823;50.588;8.462;2022-11-15T11:15:53;0.88;;;0.88;;
11533;SDS011;5823;50.588;8.462;2022-11-15T11:18:23;0.70;;;0.70;;
11533;SDS011;5823;50.588;8.462;2022-11-15T11:20:53;0.85;;;0.85;;
11533;SDS011;5823;50.588;8.462;2022-11-15T11:23:30;0.68;;;0.68;;
11533;SDS011;5823;50.588;8.462;2022-11-15T11:26:05;0.73;;;0.60;;
11533;SDS011;5823;50.588;8.462;2022-11-15T11:28:39;0.70;;;0.70;;
11533;SDS011;5823;50.588;8.462;2022-11-15T11:31:13;0.35;;;0.35;;
11533;SDS011;5823;50.588;8.462;2022-11-15T11:33:42;0.47;;;0.47;;
11533;SDS011;5823;50.588;8.462;2022-11-15T11:36:13;0.50;;;0.50;;
11533;SDS011;5823;50.588;8.462;2022-11-15T11:38:50;0.52;;;0.38;;
11533;SDS011;5823;50.588;8.462;2022-11-15T11:41:24;0.50;;;0.50;;
11533;SDS011;5823;50.588;8.462;2022-11-15T11:43:56;0.50;;;0.47;;
11533;SDS011;5823;50.588;8.462;2022-11-15T11:46:28;0.30;;;0.30;;
11533;SDS011;5823;50.588;8.462;2022-11-15T11:48:57;0.45;;;0.45;;
11533;SDS011;5823;50.588;8.462;2022-11-15T11:51:26;0.32;;;0.32;;
11533;SDS011;5823;50.588;8.462;2022-11-15T11:53:54;0.30;;;0.30;;
11533;SDS011;5823;50.588;8.462;2022-11-15T11:56:24;0.22;;;0.22;;
11533;SDS011;5823;50.588;8.462;2022-11-15T11:58:51;0.57;;;0.57;;
11533;SDS011;5823;50.588;8.462;2022-11-15T12:01:20;1.88;;;0.80;;
11533;SDS011;5823;50.588;8.462;2022-11-15T12:03:50;0.30;;;0.30;;
11533;SDS011;5823;50.588;8.462;2022-11-15T12:06:20;0.40;;;0.40;;
11533;SDS011;5823;50.588;8.462;2022-11-15T12:08:48;0.52;;;0.52;;
11533;SDS011;5823;50.588;8.462;2022-11-15T12:11:17;0.60;;;0.60;;
11533;SDS011;5823;50.588;8.462;2022-11-15T12:13:48;0.98;;;0.70;;
11533;SDS011;5823;50.588;8.462;2022-11-15T12:16:16;0.57;;;0.50;;
11533;SDS011;5823;50.588;8.462;2022-11-15T12:18:44;0.40;;;0.40;;
11533;SDS011;5823;50.588;8.462;2022-11-15T12:21:13;0.30;;;0.30;;
11533;SDS011;5823;50.588;8.462;2022-11-15T12:23:44;0.15;;;0.15;;
11533;SDS011;5823;50.588;8.462;2022-11-15T12:26:14;0.40;;;0.40;;
11533;SDS011;5823;50.588;8.462;2022-11-15T12:28:43;0.30;;;0.30;;
11533;SDS011;5823;50.588;8.462;2022-11-15T12:31:13;0.40;;;0.40;;
11533;SDS011;5823;50.588;8.462;2022-11-15T12:33:41;0.40;;;0.40;;
11533;SDS011;5823;50.588;8.462;2022-11-15T12:36:09;0.95;;;0.63;;
11533;SDS011;5823;50.588;8.462;2022-11-15T12:38:53;0.50;;;0.50;;
11533;SDS011;5823;50.588;8.462;2022-11-15T12:41:20;0.40;;;0.40;;
11533;SDS011;5823;50.588;8.462;2022-11-15T12:43:47;0.20;;;0.20;;
11533;SDS011;5823;50.588;8.462;2022-11-15T12:46:20;0.22;;;0.22;;
11533;SDS011;5823;50.588;8.462;2022-11-15T12:48:48;0.38;;;0.38;;
11533;SDS011;5823;50.588;8.462;2022-11-15T12:51:15;0.52;;;0.52;;
11533;SDS011;5823;50.588;8.462;2022-11-15T12:53:41;0.30;;;0.30;;
11533;SDS011;5823;50.588;8.462;2022-11-15T12:56:09;0.40;;;0.40;;
11533;SDS011;5823;50.588;8.462;2022-11-15T12:58:41;0.43;;;0.43;;
11533;SDS011;5823;50.588;8.462;2022-11-15T13:01:07;0.60;;;0.60;;
11533;SDS011;5823;50.588;8.462;2022-11-15T13:03:35;0.60;;;0.40;;
11533;SDS011;5823;50.588;8.462;2022-11-15T13:06:36;0.60;;;0.60;;
11533;SDS011;5823;50.588;8.462;2022-11-15T13:09:03;0.43;;;0.43;;
11533;SDS011;5823;50.588;8.462;2022-11-15T13:11:43;0.40;;;0.40;;
11533;SDS011;5823;50.588;8.462;2022-11-15T13:16:56;0.10;;;0.10;;
11533;SDS011;5823;50.588;8.462;2022-11-15T13:19:25;0.30;;;0.28;;
11533;SDS011;5823;50.588;8.462;2022-11-15T13:21:52;0.30;;;0.30;;
11533;SDS011;5823;50.588;8.462;2022-11-15T13:24:37;0.20;;;0.20;;
11533;SDS011;5823;50.588;8.462;2022-11-15T13:27:09;0.22;;;0.22;;
11533;SDS011;5823;50.588;8.462;2022-11-15T13:29:35;0.30;;;0.30;;
11533;SDS011;5823;50.588;8.462;2022-11-15T13:32:02;0.22;;;0.22;;
11533;SDS011;5823;50.588;8.462;2022-11-15T13:34:30;0.10;;;0.10;;
11533;SDS011;5823;50.588;8.462;2022-11-15T13:36:58;0.20;;;0.20;;
11533;SDS011;5823;50.588;8.462;2022-11-15T13:39:28;0.20;;;0.20;;
11533;SDS011;5823;50.588;8.462;2022-11-15T13:41:54;0.20;;;0.20;;
11533;SDS011;5823;50.588;8.462;2022-11-15T13:44:21;0.20;;;0.20;;
11533;SDS011;5823;50.588;8.462;2022-11-15T13:46:48;0.30;;;0.30;;
11533;SDS011;5823;50.588;8.462;2022-11-15T13:49:14;0.20;;;0.20;;
11533;SDS011;5823;50.588;8.462;2022-11-15T13:51:44;0.20;;;0.20;;
11533;SDS011;5823;50.588;8.462;2022-11-15T13:54:14;0.20;;;0.20;;
11533;SDS011;5823;50.588;8.462;2022-11-15T13:56:42;0.10;;;0.10;;
11533;SDS011;5823;50.588;8.462;2022-11-15T13:59:09;0.13;;;0.13;;
11533;SDS011;5823;50.588;8.462;2022-11-15T14:01:36;0.17;;;0.17;;
11533;SDS011;5823;50.588;8.462;2022-11-15T14:04:02;0.10;;;0.10;;
11533;SDS011;5823;50.588;8.462;2022-11-15T14:06:29;0.32;;;0.30;;
11533;SDS011;5823;50.588;8.462;2022-11-15T14:09:03;0.10;;;0.10;;
11533;SDS011;5823;50.588;8.462;2022-11-15T14:11:29;0.38;;;0.38;;
11533;SDS011;5823;50.588;8.462;2022-11-15T14:14:04;0.45;;;0.32;;
11533;SDS011;5823;50.588;8.462;2022-11-15T14:16:37;0.40;;;0.40;;
11533;SDS011;5823;50.588;8.462;2022-11-15T14:19:04;0.50;;;0.50;;
11533;SDS011;5823;50.588;8.462;2022-11-15T14:21:31;0.60;;;0.60;;
11533;SDS011;5823;50.588;8.462;2022-11-15T14:26:40;0.70;;;0.70;;
11533;SDS011;5823;50.588;8.462;2022-11-15T14:29:22;0.50;;;0.50;;
11533;SDS011;5823;50.588;8.462;2022-11-15T14:31:49;1.17;;;1.08;;
11533;SDS011;5823;50.588;8.462;2022-11-15T14:34:15;1.08;;;0.88;;
11533;SDS011;5823;50.588;8.462;2022-11-15T14:36:41;1.00;;;0.85;;
11533;SDS011;5823;50.588;8.462;2022-11-15T14:39:07;0.90;;;0.85;;
11533;SDS011;5823;50.588;8.462;2022-11-15T14:41:34;0.60;;;0.60;;
11533;SDS011;5823;50.588;8.462;2022-11-15T14:44:04;0.93;;;0.82;;
11533;SDS011;5823;50.588;8.462;2022-11-15T14:46:30;0.95;;;0.95;;
11533;SDS011;5823;50.588;8.462;2022-11-15T14:48:57;1.05;;;1.00;;
11533;SDS011;5823;50.588;8.462;2022-11-15T14:51:23;1.38;;;1.27;;
11533;SDS011;5823;50.588;8.462;2022-11-15T14:53:50;1.30;;;1.20;;
11533;SDS011;5823;50.588;8.462;2022-11-15T14:56:17;1.10;;;1.00;;
11533;SDS011;5823;50.588;8.462;2022-11-15T14:58:43;1.20;;;1.10;;
11533;SDS011;5823;50.588;8.462;2022-11-15T15:01:12;1.45;;;1.15;;
11533;SDS011;5823;50.588;8.462;2022-11-15T15:03:38;1.20;;;1.10;;
11533;SDS011;5823;50.588;8.462;2022-11-15T15:06:05;1.20;;;1.10;;
11533;SDS011;5823;50.588;8.462;2022-11-15T15:08:31;1.05;;;0.95;;
11533;SDS011;5823;50.588;8.462;2022-11-15T15:10:57;1.75;;;0.95;;
11533;SDS011;5823;50.588;8.462;2022-11-15T15:13:24;0.93;;;0.80;;
11533;SDS011;5823;50.588;8.462;2022-11-15T15:15:51;0.80;;;0.80;;
11533;SDS011;5823;50.588;8.462;2022-11-15T15:18:19;0.80;;;0.80;;
11533;SDS011;5823;50.588;8.462;2022-11-15T15:20:46;0.70;;;0.70;;
11533;SDS011;5823;50.588;8.462;2022-11-15T15:23:15;0.82;;;0.77;;
11533;SDS011;5823;50.588;8.462;2022-11-15T15:25:41;0.70;;;0.70;;